This is the latest recevied weather packets stored in our database for station/object DG4DAA-13. If no packets are shown the sender has not sent any weather packets the latest 1 day(s).
| Time | Temp. | Humidity | Pressure | Rain* | Wind** | Luminosity | Snow |
|---|---|---|---|---|---|---|---|
| 1777990100 | 13.33° C | 88% | 1010.4 hPa | 0 mm | 0 m/s | - | - |
| 1777988300 | 13.89° C | 89% | 1010.8 hPa | 0.51 mm | 0 m/s | - | - |
| 1777986500 | 13.89° C | 90% | 1011.1 hPa | 1.52 mm | 0 m/s | - | - |
| 1777984700 | 13.89° C | 89% | 1011.1 hPa | 3.3 mm | 0 m/s | - | - |
| 1777982903 | 13.89° C | 89% | 1011.2 hPa | 2.29 mm | 0 m/s | - | - |
| 1777981100 | 15° C | 85% | 1011.3 hPa | 0 mm | 0 m/s | - | - |
| 1777979300 | 15.56° C | 83% | 1011.1 hPa | 0 mm | 0 m/s | - | - |
| 1777977500 | 16.11° C | 82% | 1011.5 hPa | 0 mm | 0 m/s | - | - |
| 1777975700 | 15.56° C | 85% | 1011.7 hPa | 0 mm | 0 m/s | - | - |
| 1777973900 | 15° C | 86% | 1011.8 hPa | 0 mm | 0 m/s | - | - |
| 1777972100 | 15° C | 84% | 1011.9 hPa | 0 mm | 0 m/s | - | - |
| 1777970301 | 15.56° C | 85% | 1011.9 hPa | 0 mm | 0 m/s | - | - |
| 1777968501 | 15° C | 87% | 1011.9 hPa | 0 mm | 0 m/s | - | - |
| 1777966701 | 14.44° C | 92% | 1012.1 hPa | 0 mm | 0 m/s | - | - |
| 1777964901 | 13.89° C | 92% | 1012.3 hPa | 0 mm | 0 m/s | - | - |
| 1777963101 | 13.89° C | 92% | 1012.2 hPa | 0 mm | 0 m/s | - | - |
| 1777961301 | 13.89° C | 93% | 1012.3 hPa | 0 mm | 0 m/s | - | - |
| 1777959501 | 13.33° C | 93% | 1012.3 hPa | 0 mm | 0 m/s | - | - |
| 1777957734 | 12.78° C | 92% | 1012.3 hPa | 0 mm | 0 m/s | - | - |
| 1777957734 | 12.78° C | 92% | 1012.3 hPa | 0 mm | 0 m/s | - | - |
| 1777957701 | 12.78° C | 92% | 1012.3 hPa | 0 mm | 0 m/s | - | - |
| 1777955901 | 12.78° C | 92% | 1012.3 hPa | 0 mm | 0 m/s | - | - |
| 1777954101 | 12.78° C | 92% | 1012.3 hPa | 0 mm | 0 m/s | - | - |
| 1777952301 | 12.78° C | 92% | 1012.5 hPa | 0 mm | 0 m/s | - | - |
| 1777950501 | 12.78° C | 92% | 1012.6 hPa | 0 mm | 0 m/s | - | - |
* Rain latest hour (hover to see other rain measurements)
** Current wind speed in m/s (hover to see current wind gust speed)